Time;durP1;ratioP1;P1;durP2;ratioP2;P2;SDS_P1;SDS_P2;PMS_P1;PMS_P2;Temp;Humidity;BMP_temperature;BMP_pressure;BME280_temperature;BME280_humidity;BME280_pressure;Samples;Min_cycle;Max_cycle;Signal;HPM_P1;HPM_P2
2021/12/29 00:00:47;;;;;;;12.68;2.70;;;10.10;80.60;;;;;;5137817;28;20200;-84
2021/12/29 00:03:15;;;;;;;19.70;3.22;;;10.00;81.00;;;;;;5139907;28;20205;-83
2021/12/29 00:05:49;;;;;;;10.25;2.42;;;10.10;80.90;;;;;;5138277;28;20267;-85
2021/12/29 00:08:16;;;;;;;16.88;2.72;;;10.00;81.00;;;;;;5137724;28;20200;-86
2021/12/29 00:10:43;;;;;;;15.25;3.15;;;10.00;81.30;;;;;;5137931;28;20242;-83
2021/12/29 00:13:11;;;;;;;14.70;2.95;;;10.00;81.70;;;;;;5139122;28;20304;-84
2021/12/29 00:15:41;;;;;;;14.85;2.85;;;10.00;82.40;;;;;;5139469;28;20252;-84
2021/12/29 00:18:08;;;;;;;12.32;2.33;;;10.00;83.30;;;;;;5139666;28;20184;-83
2021/12/29 00:20:35;;;;;;;10.20;2.97;;;9.90;85.00;;;;;;5139753;28;20252;-88
2021/12/29 00:23:04;;;;;;;14.77;3.15;;;9.90;85.60;;;;;;5139717;28;20209;-83
2021/12/29 00:25:33;;;;;;;12.57;2.45;;;9.80;85.80;;;;;;5139777;28;20203;-82
2021/12/29 00:28:01;;;;;;;6.80;2.13;;;9.80;87.10;;;;;;5140108;28;20222;-87
2021/12/29 00:30:30;;;;;;;7.78;2.30;;;9.80;87.20;;;;;;5140041;28;20192;-85
2021/12/29 00:32:57;;;;;;;13.82;2.88;;;9.90;87.30;;;;;;5139922;28;20284;-86
2021/12/29 00:35:25;;;;;;;11.32;2.20;;;9.80;87.00;;;;;;5139435;28;20206;-87
2021/12/29 00:37:52;;;;;;;7.63;2.58;;;9.80;86.70;;;;;;5137461;28;20204;-84
2021/12/29 00:40:19;;;;;;;9.73;1.75;;;9.80;87.10;;;;;;5135077;28;20216;-85
2021/12/29 00:42:46;;;;;;;11.90;1.85;;;9.90;86.70;;;;;;5131953;28;20247;-85
2021/12/29 00:45:14;;;;;;;6.43;2.20;;;9.80;86.40;;;;;;5131548;28;20208;-82
2021/12/29 00:47:42;;;;;;;8.63;2.20;;;9.90;85.60;;;;;;5135943;28;20188;-85
2021/12/29 00:50:15;;;;;;;9.25;2.17;;;9.80;85.50;;;;;;5135175;28;20265;-85
2021/12/29 00:52:44;;;;;;;8.13;2.40;;;9.90;85.60;;;;;;5133949;28;20242;-83
2021/12/29 00:55:12;;;;;;;8.18;1.95;;;9.90;85.50;;;;;;5131432;28;20277;-85
2021/12/29 00:57:38;;;;;;;9.57;2.05;;;9.80;85.40;;;;;;5132092;28;20216;-82
2021/12/29 01:00:07;;;;;;;9.68;2.50;;;9.90;85.00;;;;;;5131303;28;20204;-84
2021/12/29 01:02:34;;;;;;;8.15;1.88;;;9.90;84.80;;;;;;5126804;28;20250;-82
2021/12/29 01:05:03;;;;;;;8.85;2.67;;;9.90;84.70;;;;;;5128891;28;20215;-83
2021/12/29 01:07:29;;;;;;;4.72;1.85;;;9.90;84.60;;;;;;5129750;28;20668;-84
2021/12/29 01:09:56;;;;;;;7.15;2.10;;;9.90;84.60;;;;;;5136018;28;20196;-84
2021/12/29 01:12:23;;;;;;;6.35;1.90;;;9.90;85.00;;;;;;5129937;28;20315;-83
2021/12/29 01:14:54;;;;;;;11.20;2.20;;;9.80;84.90;;;;;;5127774;28;20201;-83
2021/12/29 01:17:22;;;;;;;5.38;2.05;;;9.80;85.30;;;;;;5128202;28;20246;-85
2021/12/29 01:19:50;;;;;;;9.50;1.88;;;9.80;85.50;;;;;;5129117;28;20205;-83
2021/12/29 01:22:19;;;;;;;11.13;2.17;;;9.80;85.50;;;;;;5131873;28;20209;-82
2021/12/29 01:24:46;;;;;;;7.45;1.80;;;9.80;85.60;;;;;;5132224;28;20208;-84
2021/12/29 01:27:13;;;;;;;7.95;2.13;;;9.80;86.50;;;;;;5133410;28;20196;-84
2021/12/29 01:29:41;;;;;;;6.32;2.00;;;9.80;87.10;;;;;;5128527;28;20205;-84
2021/12/29 01:35:40;;;;;;;8.65;1.65;;;9.80;88.20;;;;;;5049721;28;20246;-84
2021/12/29 01:38:10;;;;;;;9.52;1.63;;;9.70;89.40;;;;;;5054688;28;20207;-79
2021/12/29 01:40:39;;;;;;;9.68;1.48;;;9.70;89.50;;;;;;5053869;28;20203;-81
2021/12/29 01:43:09;;;;;;;7.68;2.00;;;9.70;89.50;;;;;;5054430;28;20249;-82
2021/12/29 01:45:37;;;;;;;6.40;1.80;;;9.60;89.50;;;;;;5054985;28;20179;-82
2021/12/29 01:48:06;;;;;;;9.50;2.13;;;9.60;89.50;;;;;;5055174;28;20215;-82
2021/12/29 01:50:37;;;;;;;5.07;1.85;;;9.70;89.50;;;;;;5054962;28;20246;-88
2021/12/29 01:53:09;;;;;;;6.28;1.52;;;9.70;89.50;;;;;;5053973;28;20269;-84
2021/12/29 01:55:39;;;;;;;10.15;3.30;;;9.70;88.80;;;;;;5054819;28;20203;-85
2021/12/29 01:58:06;;;;;;;4.15;1.20;;;9.70;89.00;;;;;;5050539;28;20233;-83
2021/12/29 02:00:37;;;;;;;12.18;2.15;;;9.70;88.90;;;;;;5101795;28;20299;-83
2021/12/29 02:03:07;;;;;;;6.80;1.70;;;9.70;89.50;;;;;;5124124;28;20224;-81
2021/12/29 02:05:34;;;;;;;4.90;1.40;;;9.70;89.50;;;;;;5126177;28;20204;-81
2021/12/29 02:08:01;;;;;;;5.68;1.50;;;9.80;89.00;;;;;;5120969;28;20637;-82
2021/12/29 02:10:31;;;;;;;4.82;1.30;;;9.70;89.00;;;;;;5119858;28;20208;-83
2021/12/29 02:13:00;;;;;;;7.35;1.92;;;9.70;89.50;;;;;;5120870;28;20224;-83
2021/12/29 02:15:27;;;;;;;11.63;1.70;;;9.70;89.50;;;;;;5121333;28;20215;-84
2021/12/29 02:17:54;;;;;;;8.00;1.23;;;9.80;89.60;;;;;;5124829;28;20214;-83
2021/12/29 02:20:22;;;;;;;4.00;1.25;;;9.70;89.50;;;;;;5125822;28;20201;-84
2021/12/29 02:22:54;;;;;;;9.88;1.40;;;9.70;89.50;;;;;;5127148;28;20304;-82
2021/12/29 02:25:34;;;;;;;6.85;1.60;;;9.70;89.90;;;;;;5128269;28;20220;-83
2021/12/29 02:28:03;;;;;;;8.10;2.20;;;9.70;90.10;;;;;;5126355;28;20264;-82
2021/12/29 02:30:30;;;;;;;7.38;1.65;;;9.70;90.20;;;;;;5119835;28;20224;-83
2021/12/29 02:33:02;;;;;;;13.00;1.80;;;9.70;90.30;;;;;;5122706;28;20259;-83
2021/12/29 02:35:30;;;;;;;6.18;1.75;;;9.80;90.40;;;;;;5124231;28;20211;-84
2021/12/29 02:37:59;;;;;;;5.22;1.60;;;9.70;90.50;;;;;;5120167;28;20295;-82
2021/12/29 02:40:26;;;;;;;6.93;1.48;;;9.70;91.00;;;;;;5120209;28;20208;-82
2021/12/29 02:42:53;;;;;;;12.07;2.05;;;9.70;90.90;;;;;;5119174;28;20283;-83
2021/12/29 02:45:22;;;;;;;7.78;1.90;;;9.70;91.30;;;;;;5122761;28;20249;-83
2021/12/29 02:47:49;;;;;;;6.45;2.55;;;9.70;91.60;;;;;;5129045;28;20211;-83
2021/12/29 02:50:18;;;;;;;8.25;1.88;;;9.60;91.80;;;;;;5126554;28;20235;-83
2021/12/29 02:52:47;;;;;;;8.73;2.42;;;9.60;92.00;;;;;;5116962;28;20319;-83
2021/12/29 02:55:15;;;;;;;5.53;1.70;;;9.60;92.00;;;;;;5118842;28;20291;-83
2021/12/29 02:57:43;;;;;;;6.47;1.60;;;9.60;91.60;;;;;;5117690;28;20295;-83
2021/12/29 03:00:13;;;;;;;6.63;1.83;;;9.60;91.60;;;;;;5129100;28;20241;-85
2021/12/29 03:02:40;;;;;;;4.63;1.50;;;9.70;91.20;;;;;;5134877;28;20231;-83
2021/12/29 03:05:08;;;;;;;6.90;1.60;;;9.70;90.90;;;;;;5135948;28;20407;-84
2021/12/29 03:07:35;;;;;;;2.63;1.45;;;9.60;90.70;;;;;;5136036;28;20200;-86
2021/12/29 03:10:03;;;;;;;4.72;1.40;;;9.70;90.80;;;;;;5129050;28;20299;-83
2021/12/29 03:12:30;;;;;;;4.45;1.35;;;9.60;90.60;;;;;;5121242;28;20230;-83
2021/12/29 03:14:59;;;;;;;6.07;1.55;;;9.60;90.60;;;;;;5126661;28;20204;-83
2021/12/29 03:17:27;;;;;;;7.22;1.73;;;9.60;90.70;;;;;;5129220;28;20549;-82
2021/12/29 03:19:54;;;;;;;3.67;1.42;;;9.70;90.80;;;;;;5118626;28;20214;-84
2021/12/29 03:22:21;;;;;;;4.35;1.25;;;9.60;90.90;;;;;;5117946;28;20215;-84
2021/12/29 03:24:48;;;;;;;6.85;1.40;;;9.60;91.20;;;;;;5118320;28;20280;-83
2021/12/29 03:27:16;;;;;;;3.70;1.40;;;9.60;91.70;;;;;;5118136;28;20208;-83
2021/12/29 03:29:43;;;;;;;3.45;1.17;;;9.50;92.10;;;;;;5118868;28;20214;-84
2021/12/29 03:32:20;;;;;;;4.97;1.60;;;9.50;92.30;;;;;;5117829;28;20232;-83
2021/12/29 03:34:47;;;;;;;2.47;0.90;;;9.40;92.80;;;;;;5118886;28;20204;-82
2021/12/29 03:37:14;;;;;;;6.63;0.80;;;9.40;93.60;;;;;;5118195;28;20205;-83
2021/12/29 03:39:41;;;;;;;4.20;1.42;;;9.30;94.20;;;;;;5117997;28;20204;-83
2021/12/29 03:42:08;;;;;;;3.65;1.10;;;9.20;95.00;;;;;;5118718;28;20458;-83
2021/12/29 03:44:36;;;;;;;3.63;1.10;;;9.30;95.20;;;;;;5121555;28;20674;-84
2021/12/29 03:47:04;;;;;;;1.70;0.60;;;9.30;95.40;;;;;;5101260;28;20251;-82
2021/12/29 03:49:31;;;;;;;1.00;0.90;;;9.30;95.50;;;;;;5118477;28;20615;-84
2021/12/29 03:51:59;;;;;;;6.15;1.17;;;9.30;95.50;;;;;;5117871;28;20208;-82
2021/12/29 03:54:25;;;;;;;4.70;1.27;;;9.30;95.80;;;;;;5116465;28;20234;-82
2021/12/29 03:56:53;;;;;;;2.60;1.02;;;9.30;96.20;;;;;;5119094;28;20204;-82
2021/12/29 03:59:20;;;;;;;2.00;0.82;;;9.30;96.20;;;;;;5120178;28;20204;-86
2021/12/29 04:01:50;;;;;;;5.00;1.42;;;9.40;96.20;;;;;;5128590;28;20240;-83
2021/12/29 04:04:17;;;;;;;4.22;1.08;;;9.40;96.20;;;;;;5120900;28;20248;-83
2021/12/29 04:06:47;;;;;;;2.80;0.95;;;9.40;96.30;;;;;;5125924;28;20258;-83
2021/12/29 04:09:14;;;;;;;6.97;1.08;;;9.40;96.30;;;;;;5129588;28;20291;-83
2021/12/29 04:11:41;;;;;;;6.50;1.20;;;9.40;96.30;;;;;;5138276;28;20220;-82
2021/12/29 04:14:08;;;;;;;3.90;1.35;;;9.30;96.30;;;;;;5134389;28;20256;-82
2021/12/29 04:16:40;;;;;;;4.53;1.17;;;9.40;96.60;;;;;;5139009;28;20231;-81
2021/12/29 04:19:17;;;;;;;2.72;1.30;;;9.40;96.50;;;;;;5137396;28;20205;-83
2021/12/29 04:21:47;;;;;;;4.18;1.02;;;9.40;96.40;;;;;;5125135;28;20203;-83
2021/12/29 04:24:15;;;;;;;7.35;1.30;;;9.40;96.50;;;;;;5131071;28;20347;-83
2021/12/29 04:26:44;;;;;;;1.23;0.70;;;9.40;96.00;;;;;;5137907;28;20230;-83
2021/12/29 04:29:13;;;;;;;1.50;0.90;;;9.30;95.80;;;;;;5136061;28;20272;-84
2021/12/29 04:31:41;;;;;;;3.28;1.13;;;9.30;96.20;;;;;;5136065;28;20226;-83
2021/12/29 04:34:10;;;;;;;2.92;0.60;;;9.40;96.40;;;;;;5137089;28;20348;-82
2021/12/29 04:36:37;;;;;;;1.73;1.00;;;9.30;96.20;;;;;;5134925;28;20219;-82
2021/12/29 04:39:06;;;;;;;1.45;1.30;;;9.30;96.70;;;;;;5135428;28;20242;-85
2021/12/29 04:41:33;;;;;;;3.15;1.05;;;9.30;96.80;;;;;;5131131;28;20228;-83
2021/12/29 04:44:00;;;;;;;3.40;1.08;;;9.30;97.10;;;;;;5130612;28;20457;-83
2021/12/29 04:46:36;;;;;;;4.05;1.00;;;9.30;97.40;;;;;;5127983;28;20219;-83
2021/12/29 04:49:04;;;;;;;6.95;1.58;;;9.30;98.00;;;;;;5126242;28;20310;-83
2021/12/29 04:51:36;;;;;;;1.73;0.98;;;9.20;98.50;;;;;;5124746;28;20207;-83
2021/12/29 04:54:05;;;;;;;2.65;1.30;;;9.20;99.30;;;;;;5132695;28;20232;-84
2021/12/29 04:56:32;;;;;;;2.67;0.90;;;9.20;99.90;;;;;;5128965;28;20212;-84
2021/12/29 04:59:00;;;;;;;6.32;1.35;;;9.20;99.90;;;;;;5130121;28;20239;-83
2021/12/29 05:01:27;;;;;;;5.20;1.10;;;9.20;99.90;;;;;;5129562;28;20239;-83
2021/12/29 05:03:54;;;;;;;1.52;1.00;;;9.10;99.90;;;;;;5129759;28;20231;-83
2021/12/29 05:09:08;;;;;;;5.05;1.83;;;9.10;99.90;;;;;;5125100;28;20191;-84
2021/12/29 05:11:35;;;;;;;6.07;1.50;;;9.10;99.90;;;;;;5121013;28;20231;-83
2021/12/29 05:14:02;;;;;;;3.75;1.45;;;9.00;99.90;;;;;;5120581;28;20235;-84
2021/12/29 05:16:29;;;;;;;10.77;2.22;;;9.00;99.90;;;;;;5122582;28;20341;-84
2021/12/29 05:18:57;;;;;;;8.38;1.70;;;9.00;99.90;;;;;;5126674;28;20223;-84
2021/12/29 05:21:25;;;;;;;8.63;2.42;;;8.90;99.90;;;;;;5129454;28;20254;-82
2021/12/29 05:23:52;;;;;;;9.70;2.10;;;8.90;99.90;;;;;;5129373;28;20317;-82
2021/12/29 05:26:20;;;;;;;5.57;1.35;;;8.90;99.90;;;;;;5121296;28;20219;-84
2021/12/29 05:28:47;;;;;;;6.10;1.70;;;8.90;99.90;;;;;;5120161;28;20208;-83
2021/12/29 05:31:15;;;;;;;8.15;2.25;;;9.00;99.90;;;;;;5118814;28;20232;-84
2021/12/29 05:33:42;;;;;;;8.60;1.95;;;9.00;99.90;;;;;;5119400;28;20254;-84
2021/12/29 05:36:08;;;;;;;6.88;1.92;;;8.90;99.90;;;;;;5120818;28;20193;-84
2021/12/29 05:38:35;;;;;;;7.15;1.70;;;8.90;99.90;;;;;;5118745;28;20204;-82
2021/12/29 05:41:02;;;;;;;8.73;2.00;;;8.90;99.90;;;;;;5120863;28;20204;-83
2021/12/29 05:43:31;;;;;;;6.55;1.90;;;8.90;99.90;;;;;;5117898;28;20251;-83
2021/12/29 05:45:58;;;;;;;7.03;2.47;;;8.90;99.90;;;;;;5117512;28;20201;-84
2021/12/29 05:48:25;;;;;;;4.07;1.48;;;8.90;99.90;;;;;;5117090;28;20300;-84
2021/12/29 05:50:51;;;;;;;5.20;1.65;;;8.90;99.90;;;;;;5118167;28;20235;-84
2021/12/29 05:53:18;;;;;;;7.60;1.70;;;8.90;99.90;;;;;;5118793;28;20228;-84
2021/12/29 05:55:45;;;;;;;7.55;1.95;;;8.90;99.90;;;;;;5117996;28;20304;-85
2021/12/29 05:58:12;;;;;;;5.25;1.40;;;8.90;99.90;;;;;;5117666;28;20211;-84
2021/12/29 06:00:41;;;;;;;8.02;2.17;;;8.90;99.90;;;;;;5118248;28;20213;-84
2021/12/29 06:03:09;;;;;;;6.05;1.95;;;8.90;99.90;;;;;;5119134;28;20778;-84
2021/12/29 06:05:36;;;;;;;5.95;1.40;;;8.90;99.90;;;;;;5118841;28;20228;-85
2021/12/29 06:08:04;;;;;;;5.28;1.55;;;8.90;99.90;;;;;;5119349;28;20240;-85
2021/12/29 06:10:31;;;;;;;3.28;1.40;;;8.90;99.90;;;;;;5121311;28;20232;-85
2021/12/29 06:12:58;;;;;;;7.32;1.33;;;8.90;99.90;;;;;;5134163;28;20242;-84
2021/12/29 06:15:25;;;;;;;5.57;2.42;;;8.90;99.90;;;;;;5124821;28;20223;-83
2021/12/29 06:17:53;;;;;;;3.65;1.60;;;8.90;99.90;;;;;;5124679;28;20243;-85
2021/12/29 06:20:20;;;;;;;10.20;1.67;;;8.90;99.90;;;;;;5125185;28;20330;-84
2021/12/29 06:22:47;;;;;;;7.78;1.45;;;9.00;99.90;;;;;;5119787;28;20804;-83
2021/12/29 06:25:17;;;;;;;10.13;2.00;;;8.90;99.90;;;;;;5119556;28;20240;-82
2021/12/29 06:27:44;;;;;;;5.53;1.75;;;9.00;99.90;;;;;;5119175;28;20662;-83
2021/12/29 06:30:14;;;;;;;7.50;2.10;;;8.90;99.90;;;;;;5125317;28;20212;-83
2021/12/29 06:32:42;;;;;;;7.18;1.85;;;8.90;99.90;;;;;;5135876;28;20206;-84
2021/12/29 06:35:12;;;;;;;6.82;2.20;;;8.90;99.90;;;;;;5126826;28;20216;-85
2021/12/29 06:37:39;;;;;;;6.60;1.80;;;8.90;99.90;;;;;;5135746;28;20188;-83
2021/12/29 06:40:07;;;;;;;6.22;1.60;;;8.90;99.90;;;;;;5129435;28;20200;-82
2021/12/29 06:42:34;;;;;;;6.35;2.13;;;8.90;99.90;;;;;;5124363;28;20248;-83
2021/12/29 06:45:01;;;;;;;4.53;1.35;;;8.90;99.90;;;;;;5122730;28;20216;-82
2021/12/29 06:47:28;;;;;;;8.63;1.70;;;9.00;99.90;;;;;;5121664;28;20224;-83
2021/12/29 06:49:55;;;;;;;4.60;1.55;;;9.00;99.90;;;;;;5123238;28;20220;-81
2021/12/29 06:52:24;;;;;;;5.25;1.70;;;9.00;99.90;;;;;;5124954;28;20191;-83
2021/12/29 06:54:51;;;;;;;5.72;1.45;;;9.00;99.90;;;;;;5130938;28;20227;-83
2021/12/29 06:57:18;;;;;;;7.45;1.73;;;9.00;99.90;;;;;;5120502;28;20234;-83
2021/12/29 06:59:45;;;;;;;8.35;1.70;;;9.00;99.90;;;;;;5135502;28;20203;-84
2021/12/29 07:02:14;;;;;;;4.03;1.48;;;9.00;99.90;;;;;;5135915;28;20192;-83
2021/12/29 07:04:42;;;;;;;6.18;1.75;;;9.00;99.90;;;;;;5135778;28;20211;-85
2021/12/29 07:07:09;;;;;;;2.25;1.08;;;9.00;99.90;;;;;;5134929;28;20280;-84
2021/12/29 07:09:37;;;;;;;5.03;1.58;;;9.00;99.90;;;;;;5120774;28;20295;-83
2021/12/29 07:12:05;;;;;;;5.20;1.25;;;9.00;99.90;;;;;;5129668;28;20188;-84
2021/12/29 07:14:32;;;;;;;3.75;1.30;;;9.00;99.90;;;;;;5135591;28;20236;-84
2021/12/29 07:16:59;;;;;;;5.32;1.55;;;9.00;99.90;;;;;;5135080;28;20256;-85
2021/12/29 07:19:26;;;;;;;3.40;1.00;;;8.90;99.90;;;;;;5135222;28;20235;-84
2021/12/29 07:21:53;;;;;;;5.25;1.20;;;9.00;99.90;;;;;;5133369;28;20271;-85
2021/12/29 07:24:19;;;;;;;2.55;1.00;;;8.90;99.90;;;;;;5131088;28;20221;-83
2021/12/29 07:26:48;;;;;;;6.18;1.30;;;8.90;99.90;;;;;;5117265;28;20638;-84
2021/12/29 07:29:15;;;;;;;5.90;1.90;;;8.90;99.90;;;;;;5129969;28;20205;-84
2021/12/29 07:31:43;;;;;;;2.33;1.10;;;8.90;99.90;;;;;;5121436;28;20212;-84
2021/12/29 07:34:10;;;;;;;5.15;1.45;;;8.90;99.90;;;;;;5117109;28;20229;-83
2021/12/29 07:36:37;;;;;;;4.53;1.15;;;8.90;99.90;;;;;;5117851;28;20236;-83
2021/12/29 07:39:04;;;;;;;3.70;1.20;;;8.80;99.90;;;;;;5117085;28;20680;-83
2021/12/29 07:41:31;;;;;;;2.08;1.25;;;8.80;99.90;;;;;;5120574;28;20208;-83
2021/12/29 07:43:59;;;;;;;6.18;1.80;;;8.80;99.90;;;;;;5120612;28;20720;-84
2021/12/29 07:46:31;;;;;;;2.42;1.23;;;8.80;99.90;;;;;;5120332;28;20206;-84
2021/12/29 07:48:59;;;;;;;3.83;1.50;;;8.80;99.90;;;;;;5120826;28;20193;-84
2021/12/29 07:51:26;;;;;;;2.03;1.30;;;8.90;99.90;;;;;;5120045;28;20204;-83
2021/12/29 07:53:53;;;;;;;4.18;1.15;;;8.90;99.90;;;;;;5120536;28;20251;-85
2021/12/29 07:56:20;;;;;;;2.13;1.00;;;8.80;99.90;;;;;;5120410;28;20691;-83
2021/12/29 07:58:47;;;;;;;2.38;1.10;;;8.90;99.90;;;;;;5120807;28;20223;-83
2021/12/29 08:01:16;;;;;;;2.17;1.00;;;8.90;99.90;;;;;;5121552;28;20227;-84
2021/12/29 08:03:43;;;;;;;1.85;1.15;;;8.80;99.90;;;;;;5123238;28;20227;-85
2021/12/29 08:06:10;;;;;;;3.45;1.33;;;8.80;99.90;;;;;;5123494;28;20238;-84
2021/12/29 08:08:37;;;;;;;2.38;0.95;;;8.90;99.90;;;;;;5136488;28;20215;-83
2021/12/29 08:11:04;;;;;;;1.48;0.95;;;8.90;99.90;;;;;;5137295;28;20208;-84
2021/12/29 08:13:32;;;;;;;1.98;1.00;;;8.90;99.90;;;;;;5132930;28;20319;-84
2021/12/29 08:15:59;;;;;;;3.92;1.48;;;9.00;99.90;;;;;;5133468;28;20200;-84
2021/12/29 08:18:27;;;;;;;1.52;1.30;;;9.00;99.90;;;;;;5130230;28;20272;-83
2021/12/29 08:20:54;;;;;;;2.72;1.00;;;9.10;99.90;;;;;;5128327;28;20205;-83
2021/12/29 08:23:21;;;;;;;2.60;0.95;;;9.20;99.90;;;;;;5121413;28;20629;-83
2021/12/29 08:25:48;;;;;;;1.50;1.05;;;9.20;99.90;;;;;;5121798;28;20315;-82
2021/12/29 08:28:15;;;;;;;1.13;1.00;;;9.20;99.90;;;;;;5126250;28;20599;-85
2021/12/29 08:30:43;;;;;;;5.57;1.48;;;9.20;99.90;;;;;;5126559;28;20619;-84
2021/12/29 08:33:10;;;;;;;4.32;0.98;;;9.30;99.90;;;;;;5128641;28;20224;-83
2021/12/29 08:35:39;;;;;;;2.15;0.80;;;9.20;98.40;;;;;;5108842;28;20204;-83
2021/12/29 08:38:06;;;;;;;3.00;1.20;;;9.30;97.80;;;;;;5126372;28;20281;-82
2021/12/29 08:40:33;;;;;;;3.83;1.00;;;9.30;98.00;;;;;;5125189;28;20239;-83
2021/12/29 08:43:02;;;;;;;3.92;1.02;;;9.30;98.40;;;;;;5123666;28;20277;-84
2021/12/29 08:45:32;;;;;;;7.40;1.73;;;9.30;98.60;;;;;;5128731;28;20193;-84
2021/12/29 08:47:59;;;;;;;2.58;1.50;;;9.30;99.10;;;;;;5128938;28;20216;-83
2021/12/29 08:50:34;;;;;;;3.45;1.60;;;9.40;99.90;;;;;;5134665;28;20192;-85
2021/12/29 08:55:47;;;;;;;3.70;1.60;;;9.30;99.80;;;;;;5692551;22;20221;-87
2021/12/29 09:00:49;;;;;;;3.80;1.60;;;9.30;99.90;;;;;;5148873;22;20246;-83
2021/12/29 09:03:16;;;;;;;4.20;1.88;;;9.40;99.90;;;;;;5117637;28;20205;-84
2021/12/29 09:05:45;;;;;;;5.65;1.77;;;9.50;99.90;;;;;;5127557;28;20575;-83
2021/12/29 09:08:12;;;;;;;5.20;2.03;;;9.60;99.20;;;;;;5123252;28;20205;-83
2021/12/29 09:10:44;;;;;;;4.40;2.30;;;9.70;98.70;;;;;;5127175;28;20200;-84
2021/12/29 09:13:13;;;;;;;7.22;2.10;;;9.80;98.10;;;;;;5131242;28;20236;-83
2021/12/29 09:15:41;;;;;;;7.35;2.90;;;9.90;97.10;;;;;;5132018;28;20224;-84
2021/12/29 09:18:09;;;;;;;6.53;2.83;;;9.90;96.60;;;;;;5128953;28;20209;-82
2021/12/29 09:20:44;;;;;;;6.00;2.00;;;9.90;95.70;;;;;;5135235;28;20212;-82
2021/12/29 09:23:12;;;;;;;5.43;2.63;;;9.90;95.30;;;;;;5136246;28;20215;-83
2021/12/29 09:25:43;;;;;;;7.03;2.50;;;10.00;94.90;;;;;;5136452;28;20310;-83
2021/12/29 09:28:12;;;;;;;10.77;2.90;;;10.00;94.70;;;;;;5137698;28;20188;-81
2021/12/29 09:30:43;;;;;;;8.20;2.75;;;10.10;93.80;;;;;;5135080;28;20217;-82
2021/12/29 09:33:11;;;;;;;11.85;3.88;;;10.10;93.20;;;;;;5124285;28;20239;-83
2021/12/29 09:35:39;;;;;;;6.97;3.05;;;10.20;93.10;;;;;;5123821;28;20220;-83
2021/12/29 09:38:07;;;;;;;9.07;3.40;;;10.20;92.20;;;;;;5136607;28;20252;-83
2021/12/29 09:40:35;;;;;;;9.63;2.78;;;10.30;92.00;;;;;;5132383;28;20201;-84
2021/12/29 09:43:07;;;;;;;6.25;2.17;;;10.30;91.40;;;;;;5128839;28;20266;-85
2021/12/29 09:45:34;;;;;;;7.47;2.03;;;10.30;91.10;;;;;;5128976;28;20212;-87
2021/12/29 09:48:01;;;;;;;3.75;2.08;;;10.40;91.20;;;;;;5124461;28;20208;-84
2021/12/29 09:50:28;;;;;;;12.13;1.48;;;10.40;90.20;;;;;;5132895;28;20196;-82
2021/12/29 09:52:57;;;;;;;6.47;1.75;;;10.40;89.20;;;;;;5135298;28;20240;-83
2021/12/29 09:55:24;;;;;;;5.25;2.20;;;10.40;89.20;;;;;;5135579;28;20242;-82
2021/12/29 09:57:54;;;;;;;3.63;1.40;;;10.40;89.20;;;;;;5137593;28;20192;-82
2021/12/29 10:00:26;;;;;;;7.88;1.77;;;10.40;88.60;;;;;;5137564;28;20269;-82
2021/12/29 10:02:54;;;;;;;5.35;2.20;;;10.30;88.30;;;;;;5131876;28;20252;-85
2021/12/29 10:05:24;;;;;;;4.75;2.05;;;10.40;88.40;;;;;;5127645;28;20291;-85
2021/12/29 10:07:59;;;;;;;4.93;2.00;;;10.40;87.70;;;;;;5128923;28;20209;-84
2021/12/29 10:10:27;;;;;;;5.78;1.42;;;10.50;87.10;;;;;;5127252;28;20226;-84
2021/12/29 10:12:54;;;;;;;8.15;1.40;;;10.50;86.30;;;;;;5124947;28;20580;-84
2021/12/29 10:15:28;;;;;;;7.03;1.70;;;10.50;86.70;;;;;;5125234;28;20296;-84
2021/12/29 10:18:02;;;;;;;8.93;2.00;;;10.60;86.80;;;;;;5134157;28;20201;-82
2021/12/29 10:20:29;;;;;;;4.40;1.55;;;10.50;85.60;;;;;;5127599;28;20216;-83
2021/12/29 10:22:57;;;;;;;6.40;2.15;;;10.60;85.80;;;;;;5124363;28;20240;-83
2021/12/29 10:25:25;;;;;;;5.68;1.75;;;10.60;85.20;;;;;;5125844;28;20264;-83
2021/12/29 10:27:52;;;;;;;4.15;1.40;;;10.50;85.10;;;;;;5135722;28;20192;-83
2021/12/29 10:30:23;;;;;;;4.78;1.80;;;10.70;85.30;;;;;;5136969;28;20220;-84
2021/12/29 10:32:51;;;;;;;2.75;1.48;;;10.70;85.30;;;;;;5135248;28;20212;-82
2021/12/29 10:35:23;;;;;;;3.97;2.20;;;10.70;85.30;;;;;;5134375;28;20252;-82
2021/12/29 10:37:52;;;;;;;4.63;1.70;;;10.70;85.30;;;;;;5135115;28;20184;-82
2021/12/29 10:40:28;;;;;;;5.65;2.08;;;10.70;85.50;;;;;;5135732;28;20192;-82
2021/12/29 10:42:56;;;;;;;4.22;2.00;;;10.70;85.30;;;;;;5129395;28;20260;-84
2021/12/29 10:45:33;;;;;;;6.40;1.60;;;10.70;85.30;;;;;;5128675;28;20271;-84
2021/12/29 10:48:00;;;;;;;4.25;1.73;;;10.70;85.30;;;;;;5129666;28;20183;-82
2021/12/29 10:50:28;;;;;;;3.25;1.90;;;10.70;85.30;;;;;;5132818;28;20228;-83
2021/12/29 10:52:58;;;;;;;4.55;1.50;;;10.60;85.20;;;;;;5124383;28;20276;-83
2021/12/29 10:55:32;;;;;;;6.18;1.80;;;10.50;85.10;;;;;;5124287;28;20219;-83
2021/12/29 10:58:06;;;;;;;4.75;1.73;;;10.50;85.70;;;;;;5124685;28;20212;-83
2021/12/29 11:00:37;;;;;;;5.35;2.15;;;10.50;86.60;;;;;;5123571;28;20303;-82
2021/12/29 11:03:09;;;;;;;6.63;2.30;;;10.50;87.90;;;;;;5123150;28;20228;-84
2021/12/29 11:05:38;;;;;;;4.95;1.95;;;10.40;88.10;;;;;;5124436;28;20223;-84
2021/12/29 11:08:10;;;;;;;6.60;2.80;;;10.40;89.20;;;;;;5124399;28;20244;-83
2021/12/29 11:10:37;;;;;;;2.80;1.75;;;10.40;89.20;;;;;;5132071;28;20211;-84
2021/12/29 11:13:04;;;;;;;7.18;1.80;;;10.50;89.30;;;;;;5134635;28;20223;-83
2021/12/29 11:15:36;;;;;;;5.38;1.98;;;10.50;88.80;;;;;;5128662;28;20232;-83
2021/12/29 11:18:06;;;;;;;6.95;2.47;;;10.50;88.90;;;;;;5138286;28;20196;-84
2021/12/29 11:20:36;;;;;;;7.65;2.22;;;10.50;87.80;;;;;;5135665;28;20257;-84
2021/12/29 11:23:08;;;;;;;4.38;2.03;;;10.50;87.80;;;;;;5128967;27;20223;-85
2021/12/29 11:25:35;;;;;;;6.70;2.45;;;10.60;87.80;;;;;;5128871;28;20225;-84
2021/12/29 11:28:03;;;;;;;4.85;2.25;;;10.60;86.10;;;;;;5126621;28;20207;-84
2021/12/29 11:30:30;;;;;;;6.07;2.63;;;10.60;85.30;;;;;;5127276;28;20220;-84
2021/12/29 11:33:08;;;;;;;5.70;2.00;;;10.60;85.70;;;;;;5126698;28;20252;-84
2021/12/29 11:35:41;;;;;;;7.15;2.03;;;10.60;85.20;;;;;;5136131;28;20196;-83
2021/12/29 11:38:09;;;;;;;9.20;2.70;;;10.60;85.20;;;;;;5132787;28;20227;-84
2021/12/29 11:40:39;;;;;;;4.63;1.95;;;10.60;85.20;;;;;;5127578;28;20205;-84
2021/12/29 11:43:08;;;;;;;7.10;3.65;;;10.60;85.20;;;;;;5127467;28;20232;-84
2021/12/29 11:45:35;;;;;;;12.82;2.88;;;10.60;85.20;;;;;;5137464;28;20216;-83
2021/12/29 11:48:04;;;;;;;5.85;2.10;;;10.60;85.20;;;;;;5127894;28;20271;-83
2021/12/29 11:50:34;;;;;;;10.15;2.45;;;10.70;85.30;;;;;;5130564;28;20200;-85
2021/12/29 11:53:24;;;;;;;6.35;2.25;;;10.80;83.80;;;;;;5128957;28;20243;-83
2021/12/29 11:55:54;;;;;;;9.25;3.50;;;11.00;82.90;;;;;;5135206;28;20240;-82
2021/12/29 11:58:27;;;;;;;7.72;2.08;;;11.10;81.70;;;;;;5128690;28;20628;-83
2021/12/29 12:01:06;;;;;;;8.35;2.42;;;11.20;80.70;;;;;;5128170;28;20216;-83
2021/12/29 12:03:45;;;;;;;12.30;2.80;;;11.10;79.80;;;;;;5128518;28;20235;-83
2021/12/29 12:06:29;;;;;;;7.22;2.10;;;11.10;80.00;;;;;;5128767;28;20249;-82
2021/12/29 12:09:13;;;;;;;5.05;2.30;;;11.00;80.80;;;;;;5138625;28;20180;-87
2021/12/29 12:11:44;;;;;;;8.02;2.40;;;11.00;82.10;;;;;;5135661;28;20297;-83
2021/12/29 12:14:24;;;;;;;7.13;2.78;;;11.00;81.50;;;;;;5128248;28;20232;-82
2021/12/29 12:16:57;;;;;;;8.25;2.42;;;11.00;81.70;;;;;;5127036;28;20268;-83
2021/12/29 12:19:27;;;;;;;6.97;2.20;;;11.00;82.50;;;;;;5124078;28;20317;-83
2021/12/29 12:22:07;;;;;;;11.80;3.50;;;11.00;82.70;;;;;;5123152;28;20204;-82
2021/12/29 12:24:35;;;;;;;10.45;2.83;;;11.10;82.20;;;;;;5122249;28;20779;-83
2021/12/29 12:27:04;;;;;;;9.82;2.85;;;11.10;81.30;;;;;;5124063;28;20249;-85
2021/12/29 12:29:35;;;;;;;9.55;2.55;;;11.00;81.60;;;;;;5124731;28;20232;-82
2021/12/29 12:32:06;;;;;;;6.40;1.85;;;11.00;81.40;;;;;;5124645;28;20215;-82
2021/12/29 12:34:46;;;;;;;9.95;3.03;;;11.00;82.40;;;;;;5131046;28;20216;-82
2021/12/29 12:37:15;;;;;;;5.85;2.38;;;10.90;83.60;;;;;;5130212;28;20235;-83
2021/12/29 12:39:54;;;;;;;8.65;2.72;;;10.90;85.70;;;;;;5123570;28;20231;-83
2021/12/29 12:42:21;;;;;;;7.25;2.33;;;10.90;87.80;;;;;;5124744;28;20302;-83
2021/12/29 12:44:48;;;;;;;6.88;2.65;;;10.70;89.90;;;;;;5124927;28;20268;-83
2021/12/29 12:47:16;;;;;;;6.20;1.88;;;10.70;91.20;;;;;;5127851;28;20196;-82
2021/12/29 12:49:52;;;;;;;4.80;1.80;;;10.70;91.80;;;;;;5129401;28;20200;-83
2021/12/29 12:52:22;;;;;;;6.22;2.30;;;10.60;92.80;;;;;;5130203;28;20189;-82
2021/12/29 12:54:52;;;;;;;4.20;2.22;;;10.70;93.40;;;;;;5130169;28;20209;-82
2021/12/29 12:57:35;;;;;;;8.32;2.35;;;10.60;93.30;;;;;;5127408;28;20235;-82
2021/12/29 13:00:11;;;;;;;5.15;1.58;;;10.40;94.30;;;;;;5127966;28;20293;-83
2021/12/29 13:02:41;;;;;;;3.83;1.38;;;10.40;95.00;;;;;;5129156;27;20227;-82
2021/12/29 13:05:13;;;;;;;6.10;1.73;;;10.30;95.60;;;;;;5128569;28;20197;-82
2021/12/29 13:07:42;;;;;;;3.70;1.67;;;10.40;96.50;;;;;;5129405;28;20212;-82
2021/12/29 13:10:13;;;;;;;4.35;2.17;;;10.40;96.80;;;;;;5133218;28;20184;-82
2021/12/29 13:12:46;;;;;;;4.15;1.52;;;10.30;96.90;;;;;;5128053;28;20229;-83